createdAt,value
2016-05-27T00:00:16.356Z,44.34
2016-05-27T00:01:16.373Z,44.34
2016-05-27T00:02:16.236Z,44.24
2016-05-27T00:03:16.426Z,44.32
2016-05-27T00:04:16.461Z,44.44
2016-05-27T00:05:16.494Z,44.32
2016-05-27T00:06:16.497Z,44.42
2016-05-27T00:07:16.531Z,44.42
2016-05-27T00:08:16.392Z,44.61
2016-05-27T00:09:16.583Z,44.61
2016-05-27T00:10:16.445Z,44.7
2016-05-27T00:11:16.463Z,45
2016-05-27T00:12:16.669Z,44.8
2016-05-27T00:13:16.671Z,44.7
2016-05-27T00:14:16.706Z,44.9
2016-05-27T00:15:16.833Z,44.7
2016-05-27T00:16:16.773Z,44.8
2016-05-27T00:17:16.776Z,44.9
2016-05-27T00:18:16.794Z,44.9
2016-05-27T00:19:16.688Z,45
2016-05-27T00:20:16.910Z,44.9
2016-05-27T00:21:16.865Z,45
2016-05-27T00:22:17.008Z,44.8
2016-05-27T00:23:16.917Z,44.9
2016-05-27T00:24:16.952Z,44.9
2016-05-27T00:25:16.970Z,45.09
2016-05-27T00:26:16.988Z,45.09
2016-05-27T00:27:17.022Z,45.28
2016-05-27T00:28:17.040Z,45.18
2016-05-27T00:29:17.058Z,45.09
2016-05-27T00:30:17.186Z,45.09
2016-05-27T00:31:17.126Z,45.18
2016-05-27T00:32:17.145Z,45.28
2016-05-27T00:33:17.163Z,45.28
2016-05-27T00:34:17.212Z,45.37
2016-05-27T00:35:17.230Z,45.28
2016-05-27T00:36:17.233Z,45.18
2016-05-27T00:37:17.299Z,45.37
2016-05-27T00:38:17.302Z,45.37
2016-05-27T00:39:17.319Z,45.26
2016-05-27T00:40:17.338Z,45.26
2016-05-27T00:41:17.356Z,45.36
2016-05-27T00:42:17.390Z,45.36
2016-05-27T00:43:17.408Z,45.36
2016-05-27T00:44:17.443Z,45.45
2016-05-27T00:45:17.492Z,45.45
2016-05-27T00:46:17.323Z,45.45
2016-05-27T00:47:17.513Z,45.45
2016-05-27T00:48:17.531Z,45.45
2016-05-27T00:49:17.644Z,45.64
2016-05-27T00:50:17.662Z,45.83
2016-05-27T00:51:17.618Z,45.74
2016-05-27T00:52:17.479Z,45.83
2016-05-27T00:53:17.654Z,45.74
2016-05-27T00:54:17.688Z,45.74
2016-05-27T00:55:17.722Z,45.64
2016-05-27T00:56:17.740Z,45.74
2016-05-27T00:57:17.946Z,45.64
2016-05-27T00:58:17.776Z,45.83
2016-05-27T00:59:17.655Z,45.74
2016-05-27T01:00:17.907Z,45.83
2016-05-27T01:01:17.863Z,46.12
2016-05-27T01:02:17.882Z,46.03
2016-05-27T01:03:17.744Z,46.03
2016-05-27T01:04:17.934Z,46.03
2016-05-27T01:05:17.795Z,45.93
2016-05-27T01:06:18.080Z,45.93
2016-05-27T01:07:17.848Z,46.12
2016-05-27T01:08:17.882Z,46.41
2016-05-27T01:09:18.056Z,46.31
2016-05-27T01:10:18.074Z,46.12
2016-05-27T01:11:18.093Z,46.31
2016-05-27T01:12:18.127Z,46.31
2016-05-27T01:13:18.146Z,46.31
2016-05-27T01:14:18.180Z,46.12
2016-05-27T01:15:18.197Z,46.12
2016-05-27T01:16:18.216Z,46.1
2016-05-27T01:17:18.235Z,46.48
2016-05-27T01:18:18.456Z,46.19
2016-05-27T01:19:18.302Z,46.41
2016-05-27T01:20:18.305Z,46.29
2016-05-27T01:21:18.338Z,46.41
2016-05-27T01:22:18.374Z,46.39
2016-05-27T01:23:18.390Z,46.67
2016-05-27T01:24:18.268Z,46.67
2016-05-27T01:25:18.443Z,47.15
2016-05-27T01:26:18.634Z,46.39
2016-05-27T01:27:18.496Z,46.67
2016-05-27T01:28:18.608Z,46.67
2016-05-27T01:29:18.532Z,46.67
2016-05-27T01:30:18.567Z,46.67
2016-05-27T01:31:18.584Z,46.86
2016-05-27T01:32:18.759Z,46.77
2016-05-27T01:33:19.075Z,46.77
2016-05-27T01:34:18.515Z,46.77
2016-05-27T01:35:18.673Z,46.77
2016-05-27T01:36:18.550Z,46.96
2016-05-27T01:37:18.726Z,47.15
2016-05-27T01:38:18.853Z,47.15
2016-05-27T01:39:18.778Z,47.15
2016-05-27T01:40:18.811Z,47.15
2016-05-27T01:41:18.658Z,47.15
2016-05-27T01:42:18.849Z,46.96
2016-05-27T01:43:18.945Z,46.86
2016-05-27T01:44:18.900Z,46.86
2016-05-27T01:45:18.919Z,47.15
2016-05-27T01:46:18.953Z,46.86
2016-05-27T01:47:18.971Z,47.15
2016-05-27T01:48:18.990Z,47.44
2016-05-27T01:49:19.010Z,47.15
2016-05-27T01:50:19.063Z,47.06
2016-05-27T01:51:19.195Z,46.86
2016-05-27T01:52:19.139Z,46.77
2016-05-27T01:53:19.208Z,46.96
2016-05-27T01:54:19.228Z,46.96
2016-05-27T01:55:19.269Z,46.77
2016-05-27T01:56:19.137Z,47.34
2016-05-27T01:57:19.319Z,47.25
2016-05-27T01:58:19.204Z,46.77
2016-05-27T01:59:19.384Z,47.34
2016-05-27T02:00:19.421Z,47.44
2016-05-27T02:01:19.443Z,47.44
2016-05-27T02:02:19.306Z,47.25
2016-05-27T02:03:19.484Z,47.63
2016-05-27T02:04:19.708Z,47.44
2016-05-27T02:05:19.555Z,47.63
2016-05-27T02:06:19.574Z,47.63
2016-05-27T02:07:19.594Z,47.34
2016-05-27T02:08:19.645Z,47.15
2016-05-27T02:09:19.647Z,47.63
2016-05-27T02:10:19.682Z,47.63
2016-05-27T02:11:19.700Z,47.63
2016-05-27T02:12:19.719Z,47.63
2016-05-27T02:13:19.738Z,47.73
2016-05-27T02:14:19.755Z,47.92
2016-05-27T02:15:19.774Z,47.73
2016-05-27T02:16:19.808Z,47.8
2016-05-27T02:17:19.843Z,48.09
2016-05-27T02:18:20.127Z,48.02
2016-05-27T02:19:20.302Z,47.99
2016-05-27T02:20:19.897Z,48.02
2016-05-27T02:21:19.962Z,48.11
2016-05-27T02:22:19.949Z,48.18
2016-05-27T02:23:19.968Z,47.99
2016-05-27T02:24:20.002Z,48.09
2016-05-27T02:25:20.035Z,48.09
2016-05-27T02:26:20.038Z,48.18
2016-05-27T02:27:20.056Z,48.09
2016-05-27T02:28:20.106Z,48.09
2016-05-27T02:29:20.109Z,48.09
2016-05-27T02:30:20.128Z,47.89
2016-05-27T02:31:20.161Z,47.89
2016-05-27T02:32:20.179Z,48.09
2016-05-27T02:33:20.197Z,47.8
2016-05-27T02:34:20.232Z,47.71
2016-05-27T02:35:20.250Z,48.57
2016-05-27T02:36:20.315Z,47.71
2016-05-27T02:37:20.333Z,48.38
2016-05-27T02:38:20.321Z,47.8
2016-05-27T02:39:20.339Z,48.38
2016-05-27T02:40:20.372Z,47.89
2016-05-27T02:41:20.407Z,48.18
2016-05-27T02:42:20.441Z,48.18
2016-05-27T02:43:20.459Z,48.09
2016-05-27T02:44:20.478Z,48.18
2016-05-27T02:45:20.496Z,47.99
2016-05-27T02:46:20.513Z,48.57
2016-05-27T02:47:20.657Z,48.47
2016-05-27T02:48:20.676Z,48.28
2016-05-27T02:49:20.710Z,48.38
2016-05-27T02:50:20.619Z,48.28
2016-05-27T02:51:20.480Z,48.38
2016-05-27T02:52:20.655Z,48.28
2016-05-27T02:53:20.674Z,48.18
2016-05-27T02:54:20.707Z,48.18
2016-05-27T02:55:20.726Z,48.18
2016-05-27T02:56:20.744Z,48.47
2016-05-27T02:57:20.621Z,48.38
2016-05-27T02:58:20.812Z,48.75
2016-05-27T02:59:20.831Z,48.47
2016-05-27T03:00:20.849Z,48.47
2016-05-27T03:01:20.883Z,48.38
2016-05-27T03:02:20.885Z,48.57
2016-05-27T03:03:20.763Z,48.28
2016-05-27T03:04:21.422Z,48.18
2016-05-27T03:05:20.956Z,48.57
2016-05-27T03:06:20.990Z,48.57
2016-05-27T03:07:21.024Z,48.57
2016-05-27T03:08:21.026Z,48.57
2016-05-27T03:09:21.061Z,48.66
2016-05-27T03:10:21.079Z,48.75
2016-05-27T03:11:21.097Z,48.75
2016-05-27T03:12:21.131Z,48.75
2016-05-27T03:13:21.149Z,48.75
2016-05-27T03:14:21.028Z,48.57
2016-05-27T03:15:21.202Z,49.05
2016-05-27T03:16:21.220Z,48.95
2016-05-27T03:17:21.254Z,48.66
2016-05-27T03:18:21.272Z,48.66
2016-05-27T03:19:21.603Z,48.85
2016-05-27T03:20:21.309Z,48.57
2016-05-27T03:21:21.343Z,48.95
2016-05-27T03:22:21.361Z,48.66
2016-05-27T03:23:21.380Z,48.85
2016-05-27T03:24:21.413Z,48.95
2016-05-27T03:25:21.463Z,49.05
2016-05-27T03:26:21.449Z,48.95
2016-05-27T03:27:21.593Z,48.95
2016-05-27T03:28:21.502Z,48.85
2016-05-27T03:29:21.365Z,49.05
2016-05-27T03:30:21.648Z,49.52
2016-05-27T03:31:21.682Z,49.14
2016-05-27T03:32:21.685Z,49.33
2016-05-27T03:33:22.562Z,49.43
2016-05-27T03:34:21.706Z,49.33
2016-05-27T03:35:21.615Z,49.21
2016-05-27T03:36:21.773Z,49.33
2016-05-27T03:37:21.792Z,49.43
2016-05-27T03:38:21.795Z,49.33
2016-05-27T03:39:21.797Z,49.24
2016-05-27T03:40:21.800Z,49.24
2016-05-27T03:41:21.819Z,49.11
2016-05-27T03:42:21.931Z,49.33
2016-05-27T03:43:21.949Z,49.81
2016-05-27T03:44:21.936Z,49.81
2016-05-27T03:45:21.970Z,49.11
2016-05-27T03:46:21.988Z,49.14
2016-05-27T03:47:21.991Z,49.14
2016-05-27T03:48:22.009Z,49.43
2016-05-27T03:49:22.433Z,49.14
2016-05-27T03:50:21.874Z,49.24
2016-05-27T03:51:22.033Z,49.33
2016-05-27T03:52:22.066Z,49.91
2016-05-27T03:53:22.085Z,49.4
2016-05-27T03:54:22.229Z,49.33
2016-05-27T03:55:22.137Z,49.5
2016-05-27T03:56:22.155Z,49.43
2016-05-27T03:57:22.174Z,49.33
2016-05-27T03:58:22.207Z,49.81
2016-05-27T03:59:22.226Z,49.31
2016-05-27T04:00:22.245Z,49.5
2016-05-27T04:01:22.278Z,49.52
2016-05-27T04:02:22.296Z,49.52
2016-05-27T04:03:22.331Z,49.52
2016-05-27T04:04:22.349Z,49.11
2016-05-27T04:05:22.195Z,49.33
2016-05-27T04:06:22.386Z,49.31
2016-05-27T04:07:22.404Z,49.43
2016-05-27T04:08:22.422Z,49.4
2016-05-27T04:09:22.300Z,49.43
2016-05-27T04:10:22.475Z,49.6
2016-05-27T04:11:22.509Z,49.33
2016-05-27T04:12:22.370Z,49.43
2016-05-27T04:13:22.545Z,49.5
2016-05-27T04:14:22.578Z,49.31
2016-05-27T04:15:22.597Z,49.24
2016-05-27T04:16:22.459Z,49.43
2016-05-27T04:17:22.494Z,49.52
2016-05-27T04:18:23.058Z,50.1
2016-05-27T04:19:22.686Z,49.71
2016-05-27T04:20:22.705Z,49.81
2016-05-27T04:21:22.738Z,49.71
2016-05-27T04:22:22.616Z,49.52
2016-05-27T04:23:22.838Z,49.52
2016-05-27T04:24:22.809Z,49.52
2016-05-27T04:25:22.703Z,49.81
2016-05-27T04:26:22.705Z,49.69
2016-05-27T04:27:22.895Z,49.71
2016-05-27T04:28:22.898Z,49.62
2016-05-27T04:29:22.932Z,49.91
2016-05-27T04:30:22.950Z,50.38
2016-05-27T04:31:22.968Z,49.91
2016-05-27T04:32:22.987Z,49.81
2016-05-27T04:33:23.348Z,49.71
2016-05-27T04:34:23.039Z,49.81
2016-05-27T04:35:23.057Z,50
2016-05-27T04:36:23.091Z,49.91
2016-05-27T04:37:23.109Z,49.62
2016-05-27T04:38:22.972Z,50.38
2016-05-27T04:39:23.162Z,50.38
2016-05-27T04:40:23.008Z,49.81
2016-05-27T04:41:23.198Z,50.67
2016-05-27T04:42:23.076Z,49.91
2016-05-27T04:43:23.236Z,49.71
2016-05-27T04:44:23.113Z,49.71
2016-05-27T04:45:23.287Z,50.48
2016-05-27T04:46:23.337Z,49.71
2016-05-27T04:47:23.183Z,49.71
2016-05-27T04:48:24.342Z,49.81
2016-05-27T04:49:23.235Z,49.62
2016-05-27T04:50:23.254Z,49.71
2016-05-27T04:51:23.272Z,49.71
2016-05-27T04:52:23.447Z,49.52
2016-05-27T04:53:23.480Z,49.91
2016-05-27T04:54:23.499Z,49.52
2016-05-27T04:55:23.518Z,49.71
2016-05-27T04:56:23.551Z,49.71
2016-05-27T04:57:23.569Z,49.71
2016-05-27T04:58:23.588Z,49.81
2016-05-27T04:59:23.622Z,50.1
2016-05-27T05:00:23.640Z,49.81
2016-05-27T05:01:23.674Z,49.81
2016-05-27T05:02:23.692Z,49.81
2016-05-27T05:03:23.710Z,49.91
2016-05-27T05:04:24.260Z,49.74
2016-05-27T05:05:23.856Z,49.84
2016-05-27T05:06:23.781Z,49.71
2016-05-27T05:07:23.815Z,50.67
2016-05-27T05:08:25.240Z,50.03
2016-05-27T05:09:23.851Z,49.74
2016-05-27T05:10:23.886Z,50.12
2016-05-27T05:11:23.904Z,49.84
2016-05-27T05:12:23.923Z,49.93
2016-05-27T05:13:23.957Z,50.32
2016-05-27T05:14:23.959Z,49.93
2016-05-27T05:15:23.993Z,49.65
2016-05-27T05:16:24.105Z,50.32
2016-05-27T05:17:24.030Z,50.22
2016-05-27T05:18:24.064Z,50.12
2016-05-27T05:19:24.066Z,50.03
2016-05-27T05:20:24.116Z,49.93
2016-05-27T05:21:24.133Z,49.84
2016-05-27T05:22:24.152Z,49.74
2016-05-27T05:23:24.186Z,49.65
2016-05-27T05:24:24.205Z,49.93
2016-05-27T05:25:24.238Z,50.03
2016-05-27T05:26:24.241Z,49.84
2016-05-27T05:27:24.275Z,49.93
2016-05-27T05:28:24.294Z,49.93
2016-05-27T05:29:24.156Z,50.03
2016-05-27T05:30:24.345Z,49.93
2016-05-27T05:31:24.365Z,50.22
2016-05-27T05:32:24.383Z,50.03
2016-05-27T05:33:24.448Z,50.22
2016-05-27T05:34:24.513Z,50.12
2016-05-27T05:35:24.454Z,50.89
2016-05-27T05:36:24.471Z,50.05
2016-05-27T05:37:24.506Z,50.32
2016-05-27T05:38:24.368Z,50.32
2016-05-27T05:39:24.557Z,50.41
2016-05-27T05:40:24.576Z,50.15
2016-05-27T05:41:24.687Z,50.12
2016-05-27T05:42:24.629Z,49.96
2016-05-27T05:43:24.662Z,49.96
2016-05-27T05:44:24.664Z,50.53
2016-05-27T05:45:24.683Z,50.34
2016-05-27T05:46:24.717Z,49.96
2016-05-27T05:47:24.782Z,50.43
2016-05-27T05:48:24.597Z,50.05
2016-05-27T05:49:24.803Z,50.15
2016-05-27T05:50:24.806Z,50.34
2016-05-27T05:51:24.839Z,50.24
2016-05-27T05:52:24.858Z,50.34
2016-05-27T05:53:24.876Z,49.76
2016-05-27T05:54:24.895Z,49.86
2016-05-27T05:55:24.929Z,49.76
2016-05-27T05:56:24.963Z,49.96
2016-05-27T05:57:24.980Z,49.76
2016-05-27T05:58:24.999Z,49.69
2016-05-27T05:59:25.018Z,49.76
2016-05-27T06:00:25.052Z,50.05
2016-05-27T06:01:25.071Z,49.69
2016-05-27T06:02:25.088Z,49.79
2016-05-27T06:03:24.966Z,49.5
2016-05-27T06:04:25.156Z,49.79
2016-05-27T06:05:25.174Z,50.27
2016-05-27T06:06:25.193Z,49.5
2016-05-27T06:07:25.212Z,49.41
2016-05-27T06:08:25.229Z,49.98
2016-05-27T06:09:25.357Z,49.31
2016-05-27T06:10:25.313Z,49.31
2016-05-27T06:11:25.315Z,50.08
2016-05-27T06:12:25.349Z,49.41
2016-05-27T06:13:25.353Z,49.31
2016-05-27T06:14:25.386Z,49.41
2016-05-27T06:15:25.404Z,49.41
2016-05-27T06:16:25.422Z,49.5
2016-05-27T06:17:25.457Z,49.5
2016-05-27T06:18:25.834Z,49.33
2016-05-27T06:19:25.602Z,49.41
2016-05-27T06:20:25.528Z,49.21
2016-05-27T06:21:25.545Z,50.1
2016-05-27T06:22:25.580Z,49.43
2016-05-27T06:23:25.597Z,49.24
2016-05-27T06:24:25.616Z,49.52
2016-05-27T06:25:25.650Z,49.52
2016-05-27T06:26:25.668Z,49.33
2016-05-27T06:27:25.702Z,49.24
2016-05-27T06:28:25.814Z,49.43
2016-05-27T06:29:25.755Z,49.24
2016-05-27T06:30:25.757Z,49.72
2016-05-27T06:31:25.791Z,50.01
2016-05-27T06:32:25.810Z,49.33
2016-05-27T06:33:26.577Z,49.43
2016-05-27T06:34:25.877Z,49.43
2016-05-27T06:35:25.880Z,49.36
2016-05-27T06:36:25.914Z,49.15
2016-05-27T06:37:25.948Z,49.26
2016-05-27T06:38:26.045Z,49.26
2016-05-27T06:39:25.984Z,49.26
2016-05-27T06:40:26.019Z,49.26
2016-05-27T06:41:26.037Z,49.46
2016-05-27T06:42:26.070Z,49.36
2016-05-27T06:43:26.074Z,49.26
2016-05-27T06:44:26.107Z,49.26
2016-05-27T06:45:25.969Z,49.36
2016-05-27T06:46:26.144Z,49.26
2016-05-27T06:47:26.178Z,49.36
2016-05-27T06:48:26.212Z,49.17
2016-05-27T06:49:26.230Z,49.48
2016-05-27T06:50:26.248Z,49.57
2016-05-27T06:51:26.361Z,49.07
2016-05-27T06:52:26.488Z,49.07
2016-05-27T06:53:26.506Z,49.19
2016-05-27T06:54:26.197Z,49.48
2016-05-27T06:55:26.371Z,49
2016-05-27T06:56:26.406Z,49.1
2016-05-27T06:57:26.517Z,48.71
2016-05-27T06:58:26.442Z,48.71
2016-05-27T06:59:29.038Z,48.9
2016-05-27T07:00:26.337Z,48.71
2016-05-27T07:01:26.357Z,49.02
2016-05-27T07:02:26.391Z,49.31
2016-05-27T07:03:26.424Z,48.83
2016-05-27T07:04:26.442Z,48.64
2016-05-27T07:05:26.618Z,48.64
2016-05-27T07:06:26.635Z,48.35
2016-05-27T07:07:26.668Z,48.54
2016-05-27T07:08:26.532Z,48.25
2016-05-27T07:09:28.065Z,48.16
2016-05-27T07:10:26.740Z,48.07
2016-05-27T07:11:26.773Z,47.97
2016-05-27T07:12:26.792Z,47.22
2016-05-27T07:13:26.826Z,47.7
2016-05-27T07:14:26.844Z,47.7
2016-05-27T07:15:26.862Z,47.51
2016-05-27T07:16:26.897Z,47.03
2016-05-27T07:17:26.914Z,47.61
2016-05-27T07:18:26.934Z,47.13
2016-05-27T07:19:26.967Z,47.22
2016-05-27T07:20:26.986Z,47.13
2016-05-27T07:21:27.019Z,47.15
2016-05-27T07:22:27.054Z,47.24
2016-05-27T07:23:26.916Z,46.86
2016-05-27T07:24:27.105Z,47.05
2016-05-27T07:25:27.124Z,46.77
2016-05-27T07:26:27.142Z,46.95
2016-05-27T07:27:27.161Z,46.86
2016-05-27T07:28:27.194Z,47.05
2016-05-27T07:29:27.541Z,46.95
2016-05-27T07:30:27.247Z,46.98
2016-05-27T07:31:27.266Z,47.27
2016-05-27T07:32:27.299Z,47.27
2016-05-27T07:33:27.317Z,47.08
2016-05-27T07:34:27.352Z,46.59
2016-05-27T07:35:27.385Z,46.69
2016-05-27T07:36:27.404Z,46.59
2016-05-27T07:37:27.422Z,46.4
2016-05-27T07:38:27.456Z,46.52
2016-05-27T07:39:28.848Z,46.14
2016-05-27T07:40:27.508Z,45.94
2016-05-27T07:41:27.542Z,45.94
2016-05-27T07:42:27.560Z,45.65
2016-05-27T07:43:27.578Z,45.46
2016-05-27T07:44:31.504Z,45.56
2016-05-27T07:45:27.630Z,45.56
2016-05-27T07:46:27.649Z,45.56
2016-05-27T07:47:27.684Z,45.48
2016-05-27T07:48:27.717Z,45.29
2016-05-27T07:49:27.766Z,45.1
2016-05-27T07:50:27.754Z,45
2016-05-27T07:51:27.787Z,45
2016-05-27T07:52:27.821Z,45.1
2016-05-27T07:53:27.855Z,44.9
2016-05-27T07:54:31.592Z,44.62
2016-05-27T07:55:27.891Z,44.52
2016-05-27T07:56:27.754Z,44.62
2016-05-27T07:57:27.944Z,44.62
2016-05-27T07:58:27.978Z,44.64
2016-05-27T07:59:28.824Z,44.52
2016-05-27T08:00:28.016Z,44.54
2016-05-27T08:01:28.049Z,44.25
2016-05-27T08:02:27.910Z,44.25
2016-05-27T08:03:28.101Z,43.77
2016-05-27T08:04:31.432Z,44.15
2016-05-27T08:05:28.154Z,44.35
2016-05-27T08:06:28.015Z,43.67
2016-05-27T08:07:28.205Z,43.87
2016-05-27T08:08:28.223Z,43.87
2016-05-27T08:09:31.290Z,44.18
2016-05-27T08:10:28.401Z,44.25
2016-05-27T08:11:28.310Z,43.96
2016-05-27T08:12:28.375Z,43.79
2016-05-27T08:13:28.379Z,44.06
2016-05-27T08:14:30.021Z,43.77
2016-05-27T08:15:28.415Z,44.08
2016-05-27T08:16:28.526Z,43.58
2016-05-27T08:17:28.576Z,43.7
2016-05-27T08:18:28.579Z,43.6
2016-05-27T08:19:31.737Z,43.6
2016-05-27T08:20:28.600Z,43.7
2016-05-27T08:21:28.603Z,43.6
2016-05-27T08:22:28.605Z,43.6
2016-05-27T08:23:28.734Z,43.31
2016-05-27T08:24:29.033Z,43.12
2016-05-27T08:25:28.675Z,43.31
2016-05-27T08:26:28.710Z,43.41
2016-05-27T08:27:28.728Z,43.6
2016-05-27T08:28:28.762Z,42.94
2016-05-27T08:29:32.124Z,43.41
2016-05-27T08:30:28.814Z,43.31
2016-05-27T08:31:28.849Z,42.83
2016-05-27T08:32:28.866Z,43.02
2016-05-27T08:33:28.900Z,42.85
2016-05-27T08:34:32.825Z,42.75
2016-05-27T08:35:28.953Z,42.66
2016-05-27T08:36:28.971Z,42.85
2016-05-27T08:37:29.005Z,43.04
2016-05-27T08:38:29.023Z,42.85
2016-05-27T08:39:29.057Z,42.83
2016-05-27T08:40:29.091Z,42.75
2016-05-27T08:41:29.110Z,42.85
2016-05-27T08:42:28.987Z,43.14
2016-05-27T08:43:29.177Z,43.14
2016-05-27T08:44:30.930Z,43.04
2016-05-27T08:45:29.214Z,43.14
2016-05-27T08:46:29.248Z,43.12
2016-05-27T08:47:29.267Z,43.04
2016-05-27T08:48:29.300Z,43.04
2016-05-27T08:49:33.147Z,43.33
2016-05-27T08:50:29.353Z,43.33
2016-05-27T08:51:29.387Z,43.04
2016-05-27T08:52:29.421Z,42.94
2016-05-27T08:53:29.439Z,43.04
2016-05-27T08:54:30.911Z,43.04
2016-05-27T08:55:29.491Z,43.14
2016-05-27T08:56:29.525Z,42.75
2016-05-27T08:57:29.387Z,42.85
2016-05-27T08:58:29.577Z,42.75
2016-05-27T08:59:30.783Z,42.85
2016-05-27T09:00:29.644Z,42.75
2016-05-27T09:01:29.664Z,42.85
2016-05-27T09:02:29.682Z,42.85
2016-05-27T09:03:29.716Z,42.85
2016-05-27T09:04:31.063Z,43.04
2016-05-27T09:05:29.768Z,42.36
2016-05-27T09:06:29.802Z,42.75
2016-05-27T09:07:29.664Z,42.75
2016-05-27T09:08:29.854Z,42.39
2016-05-27T09:09:29.872Z,42.77
2016-05-27T09:10:29.907Z,42.58
2016-05-27T09:11:29.940Z,42.39
2016-05-27T09:12:29.959Z,42.48
2016-05-27T09:13:30.070Z,42.48
2016-05-27T09:14:30.011Z,42.1
2016-05-27T09:15:30.060Z,42.18
2016-05-27T09:16:29.922Z,42.19
2016-05-27T09:17:29.940Z,42.29
2016-05-27T09:18:30.132Z,42.19
2016-05-27T09:19:31.603Z,42.19
2016-05-27T09:20:30.183Z,42.19
2016-05-27T09:21:30.217Z,41.81
2016-05-27T09:22:30.235Z,42
2016-05-27T09:23:30.114Z,41.91
2016-05-27T09:24:32.445Z,41.91
2016-05-27T09:25:30.322Z,41.91
2016-05-27T09:26:30.356Z,41.61
2016-05-27T09:27:30.374Z,41.52
2016-05-27T09:28:30.408Z,41.42
2016-05-27T09:29:30.286Z,41.33
2016-05-27T09:30:30.460Z,41.35
2016-05-27T09:31:30.338Z,41.35
2016-05-27T09:32:30.513Z,41.25
2016-05-27T09:33:30.546Z,40.96
2016-05-27T09:34:30.424Z,41.15
2016-05-27T09:35:30.599Z,41.05
2016-05-27T09:36:30.633Z,40.96
2016-05-27T09:37:30.651Z,40.77
2016-05-27T09:38:30.529Z,40.57
2016-05-27T09:39:30.563Z,40.67
2016-05-27T09:40:30.737Z,40.67
2016-05-27T09:41:31.380Z,40.67
2016-05-27T09:42:30.805Z,40.96
2016-05-27T09:43:30.823Z,40.77
2016-05-27T09:44:32.638Z,40.57
2016-05-27T09:45:30.876Z,40.38
2016-05-27T09:46:30.909Z,40.28
2016-05-27T09:47:30.943Z,40.09
2016-05-27T09:48:30.962Z,40.28
2016-05-27T09:49:31.495Z,40.11
2016-05-27T09:50:30.857Z,40.01
2016-05-27T09:51:31.048Z,40.2
2016-05-27T09:52:31.081Z,39.72
2016-05-27T09:53:31.100Z,39.62
2016-05-27T09:54:31.243Z,39.34
2016-05-27T09:55:31.168Z,39.62
2016-05-27T09:56:31.186Z,39.24
2016-05-27T09:57:31.220Z,39.34
2016-05-27T09:58:31.082Z,39.06
2016-05-27T09:59:31.289Z,38.97
2016-05-27T10:00:31.259Z,38.78
2016-05-27T10:01:31.434Z,38.87
2016-05-27T10:02:31.452Z,38.39
2016-05-27T10:03:31.471Z,38.58
2016-05-27T10:04:31.613Z,38.48
2016-05-27T10:05:31.492Z,37.92
2016-05-27T10:06:31.339Z,37.82
2016-05-27T10:07:31.607Z,38.02
2016-05-27T10:08:31.609Z,37.82
2016-05-27T10:09:31.658Z,37.73
2016-05-27T10:10:31.582Z,37.73
2016-05-27T10:11:31.632Z,37.24
2016-05-27T10:12:31.667Z,37.36
2016-05-27T10:13:31.685Z,36.58
2016-05-27T10:14:31.704Z,36.98
2016-05-27T10:15:31.596Z,37.17
2016-05-27T10:16:31.771Z,36.88
2016-05-27T10:17:31.790Z,36.49
2016-05-27T10:18:31.824Z,36.51
2016-05-27T10:19:32.764Z,36.51
2016-05-27T10:20:31.876Z,36.32
2016-05-27T10:21:31.909Z,35.83
2016-05-27T10:22:31.943Z,35.25
2016-05-27T10:23:31.978Z,35.83
2016-05-27T10:24:31.996Z,35.56
2016-05-27T10:25:32.030Z,35.17
2016-05-27T10:26:32.048Z,35.56
2016-05-27T10:27:32.098Z,35.56
2016-05-27T10:28:32.116Z,35.46
2016-05-27T10:29:32.150Z,35.56
2016-05-27T10:30:32.184Z,35.19
2016-05-27T10:31:32.202Z,35.19
2016-05-27T10:32:32.220Z,34.99
2016-05-27T10:33:32.255Z,34.51
2016-05-27T10:34:32.913Z,34.51
2016-05-27T10:35:32.322Z,34.22
2016-05-27T10:36:32.341Z,34.8
2016-05-27T10:37:32.218Z,34.33
2016-05-27T10:38:32.409Z,34.33
2016-05-27T10:39:32.443Z,34.14
2016-05-27T10:40:32.476Z,33.65
2016-05-27T10:41:32.495Z,33.56
2016-05-27T10:42:32.529Z,33.56
2016-05-27T10:43:32.563Z,32.49
2016-05-27T10:44:32.582Z,32.49
2016-05-27T10:45:32.459Z,32.41
2016-05-27T10:46:32.665Z,32.02
2016-05-27T10:47:32.682Z,32.5
2016-05-27T10:48:32.701Z,32.21
2016-05-27T10:49:32.750Z,32.29
2016-05-27T10:50:32.768Z,32.31
2016-05-27T10:51:32.647Z,32.97
2016-05-27T10:52:32.837Z,32.68
2016-05-27T10:53:32.698Z,32.59
2016-05-27T10:54:32.889Z,32.78
2016-05-27T10:55:32.970Z,32.59
2016-05-27T10:56:32.982Z,32.49
2016-05-27T10:57:33.043Z,32.49
2016-05-27T10:58:33.086Z,32.87
2016-05-27T10:59:32.989Z,32.68
2016-05-27T11:00:33.206Z,32.97
2016-05-27T11:01:33.249Z,33.56
2016-05-27T11:02:33.120Z,33.26
2016-05-27T11:03:33.320Z,33.26
2016-05-27T11:04:33.925Z,32.37
2016-05-27T11:05:33.484Z,32.47
2016-05-27T11:06:33.522Z,32.37
2016-05-27T11:07:33.528Z,32.76
2016-05-27T11:08:33.549Z,33.15
2016-05-27T11:09:33.555Z,32.86
2016-05-27T11:10:33.844Z,32.96
2016-05-27T11:11:33.706Z,33.44
2016-05-27T11:12:33.710Z,32.96
2016-05-27T11:13:33.760Z,33.15
2016-05-27T11:14:33.780Z,32.96
2016-05-27T11:15:33.800Z,33.44
2016-05-27T11:16:33.819Z,33.25
2016-05-27T11:17:33.822Z,33.25
2016-05-27T11:18:33.824Z,33.54
2016-05-27T11:19:34.000Z,33.54
2016-05-27T11:20:33.815Z,33.44
2016-05-27T11:21:33.896Z,33.72
2016-05-27T11:22:33.930Z,33.72
2016-05-27T11:23:33.965Z,33.72
2016-05-27T11:24:33.983Z,34.01
2016-05-27T11:25:34.019Z,33.72
2016-05-27T11:26:34.052Z,33.72
2016-05-27T11:27:34.086Z,33.91
2016-05-27T11:28:34.213Z,34.01
2016-05-27T11:29:34.216Z,34.2
2016-05-27T11:30:34.390Z,34.11
2016-05-27T11:31:34.268Z,34.3
2016-05-27T11:32:34.412Z,34.49
2016-05-27T11:33:34.414Z,34.39
2016-05-27T11:34:34.418Z,34.19
2016-05-27T11:35:34.420Z,34.19
2016-05-27T11:36:34.437Z,33.91
2016-05-27T11:37:34.441Z,34.77
2016-05-27T11:38:34.584Z,34.2
2016-05-27T11:39:34.587Z,34.19
2016-05-27T11:40:34.590Z,34.77
2016-05-27T11:41:34.576Z,35.15
2016-05-27T11:42:34.454Z,35.54
2016-05-27T11:43:34.613Z,35.54
2016-05-27T11:44:34.631Z,35.64
2016-05-27T11:45:34.634Z,36.12
2016-05-27T11:46:34.496Z,35.83
2016-05-27T11:47:34.686Z,35.93
2016-05-27T11:48:34.705Z,36.7
2016-05-27T11:49:34.754Z,36.6
2016-05-27T11:50:35.194Z,36.78
2016-05-27T11:51:34.807Z,36.88
2016-05-27T11:52:34.825Z,36.98
2016-05-27T11:53:34.858Z,36.68
2016-05-27T11:54:34.892Z,36.68
2016-05-27T11:55:34.958Z,36.68
2016-05-27T11:56:34.944Z,37.46
2016-05-27T11:57:34.979Z,37.94
2016-05-27T11:58:35.013Z,37.65
2016-05-27T11:59:35.046Z,37.85
2016-05-27T12:00:35.081Z,37.75
2016-05-27T12:01:35.099Z,38.02
2016-05-27T12:02:34.977Z,37.85
2016-05-27T12:03:35.166Z,37.73
2016-05-27T12:04:35.044Z,37.82
2016-05-27T12:05:35.219Z,37.92
2016-05-27T12:06:35.254Z,37.92
2016-05-27T12:07:35.287Z,37.92
2016-05-27T12:08:35.321Z,37.92
2016-05-27T12:09:35.339Z,38.21
2016-05-27T12:10:35.374Z,38.12
2016-05-27T12:11:35.282Z,38.02
2016-05-27T12:12:35.441Z,37.92
2016-05-27T12:13:35.459Z,37.82
2016-05-27T12:14:35.478Z,37.73
2016-05-27T12:15:35.528Z,38.41
2016-05-27T12:16:35.561Z,38.21
2016-05-27T12:17:35.579Z,38.21
2016-05-27T12:18:35.613Z,38.39
2016-05-27T12:19:35.960Z,38.29
2016-05-27T12:20:35.666Z,38.39
2016-05-27T12:21:35.714Z,38.12
2016-05-27T12:22:35.718Z,38.58
2016-05-27T12:23:35.752Z,38.5
2016-05-27T12:24:35.817Z,38.48
2016-05-27T12:25:35.820Z,38.58
2016-05-27T12:26:35.838Z,38.58
2016-05-27T12:27:35.872Z,38.68
2016-05-27T12:28:35.905Z,38.58
2016-05-27T12:29:35.940Z,38.68
2016-05-27T12:30:35.958Z,38.58
2016-05-27T12:31:35.991Z,38.58
2016-05-27T12:32:36.026Z,38.48
2016-05-27T12:33:35.904Z,38.58
2016-05-27T12:34:36.454Z,38.87
2016-05-27T12:35:36.113Z,38.78
2016-05-27T12:36:36.162Z,38.58
2016-05-27T12:37:36.165Z,38.39
2016-05-27T12:38:36.043Z,38.76
2016-05-27T12:39:36.232Z,38.76
2016-05-27T12:40:36.251Z,38.56
2016-05-27T12:41:36.285Z,38.66
2016-05-27T12:42:36.318Z,38.66
2016-05-27T12:43:36.353Z,38.85
2016-05-27T12:44:36.370Z,39.04
2016-05-27T12:45:36.404Z,38.85
2016-05-27T12:46:36.439Z,39.04
2016-05-27T12:47:36.457Z,38.95
2016-05-27T12:48:36.351Z,38.85
2016-05-27T12:49:36.947Z,39.24
2016-05-27T12:50:36.543Z,39.04
2016-05-27T12:51:36.593Z,39.22
2016-05-27T12:52:36.627Z,38.95
2016-05-27T12:53:36.645Z,39.24
2016-05-27T12:54:37.350Z,39.22
2016-05-27T12:55:36.697Z,39.24